Time;durP1;ratioP1;P1;durP2;ratioP2;P2;SDS_P1;SDS_P2;PMS_P1;PMS_P2;Temp;Humidity;BMP_temperature;BMP_pressure;BME280_temperature;BME280_humidity;BME280_pressure;Samples;Min_cycle;Max_cycle;Signal;HPM_P1;HPM_P2
2022/10/06 00:00:31;;;;;;;5.18;1.10;;;;;;;12.33;85.80;102068.78;4933155;29;20039;-75
2022/10/06 00:02:56;;;;;;;5.45;1.58;;;;;;;12.31;85.90;102067.97;4924747;29;20455;-75
2022/10/06 00:05:22;;;;;;;11.77;1.40;;;;;;;12.28;85.82;102079.09;4916274;29;20040;-73
2022/10/06 00:07:47;;;;;;;9.52;2.72;;;;;;;12.28;85.61;102087.28;4923050;29;20035;-75
2022/10/06 00:10:12;;;;;;;7.70;1.35;;;;;;;12.24;85.37;102092.03;4933552;29;20099;-75
2022/10/06 00:12:43;;;;;;;9.02;1.92;;;;;;;12.23;85.26;102101.19;4933529;29;20040;-74
2022/10/06 00:15:10;;;;;;;6.47;1.35;;;;;;;12.23;84.51;102101.19;4930847;29;20036;-75
2022/10/06 00:17:36;;;;;;;5.43;1.63;;;;;;;12.19;84.71;102110.53;4931403;29;20027;-75
2022/10/06 00:20:02;;;;;;;5.70;1.70;;;;;;;12.19;84.05;102110.53;4933349;29;20040;-75
2022/10/06 00:22:39;;;;;;;8.32;1.50;;;;;;;12.17;84.18;102116.09;4931480;29;20363;-75
2022/10/06 00:25:06;;;;;;;7.57;1.55;;;;;;;12.13;84.06;102124.53;4933222;29;20055;-75
2022/10/06 00:27:40;;;;;;;6.05;1.08;;;;;;;12.10;83.97;102128.31;4921408;29;20126;-75
2022/10/06 00:30:12;;;;;;;8.35;1.85;;;;;;;12.13;83.75;102136.31;4930807;29;20043;-73
2022/10/06 00:32:38;;;;;;;7.35;1.48;;;;;;;12.11;83.60;102138.25;4921061;29;20039;-74
2022/10/06 00:35:04;;;;;;;7.60;1.50;;;;;;;12.08;83.99;102143.91;4916984;29;20404;-75
2022/10/06 00:37:36;;;;;;;7.15;1.33;;;;;;;12.05;83.98;102148.66;4918651;29;20118;-75
2022/10/06 00:40:05;;;;;;;9.40;1.77;;;;;;;12.03;84.58;102159.66;4931553;29;20035;-75
2022/10/06 00:42:32;;;;;;;7.38;1.20;;;;;;;12.05;84.63;102160.44;4932284;29;20024;-75
2022/10/06 00:45:02;;;;;;;6.35;1.40;;;;;;;12.04;84.76;102152.34;4927678;29;20345;-75
2022/10/06 00:47:30;;;;;;;7.10;1.73;;;;;;;12.07;84.72;102163.06;4928203;29;20155;-75
2022/10/06 00:49:59;;;;;;;8.93;1.67;;;;;;;12.03;85.17;102156.94;4913841;29;20488;-74
2022/10/06 00:52:29;;;;;;;12.32;1.75;;;;;;;12.01;85.39;102164.31;4931941;29;20655;-74
2022/10/06 00:54:57;;;;;;;10.85;1.40;;;;;;;11.98;85.81;102161.75;4928091;29;20131;-75
2022/10/06 00:57:24;;;;;;;11.77;1.40;;;;;;;11.96;85.47;102172.75;4930507;29;20471;-74
2022/10/06 00:59:50;;;;;;;8.00;1.42;;;;;;;11.94;85.88;102180.16;4927924;29;20048;-74
2022/10/06 01:02:30;;;;;;;8.23;2.03;;;;;;;11.91;86.18;102177.59;4929944;29;20038;-75
2022/10/06 01:04:59;;;;;;;11.77;1.55;;;;;;;11.89;85.79;102175.91;4932476;29;20044;-74
2022/10/06 01:07:27;;;;;;;5.78;1.95;;;;;;;11.84;86.31;102180.72;4927581;29;20051;-75
2022/10/06 01:09:54;;;;;;;9.77;1.33;;;;;;;11.80;86.48;102188.19;4913465;29;20194;-74
2022/10/06 01:12:21;;;;;;;16.23;2.30;;;;;;;11.74;86.51;102185.78;4913756;29;20083;-75
2022/10/06 01:14:46;;;;;;;7.05;1.85;;;;;;;11.70;86.86;102195.09;4912008;29;20135;-74
2022/10/06 01:17:20;;;;;;;10.95;1.85;;;;;;;11.68;86.38;102194.31;4914576;29;20532;-74
2022/10/06 01:19:48;;;;;;;10.15;1.80;;;;;;;11.67;86.59;102207.06;4927782;29;20046;-74
2022/10/06 01:22:16;;;;;;;9.57;2.22;;;;;;;11.68;86.52;102213.41;4911773;29;20020;-75
2022/10/06 01:24:45;;;;;;;11.95;1.77;;;;;;;11.69;86.48;102217.88;4896221;29;20052;-74
2022/10/06 01:27:13;;;;;;;9.85;1.63;;;;;;;11.68;86.47;102227.91;4928745;29;20566;-75
2022/10/06 01:29:39;;;;;;;7.30;1.90;;;;;;;11.72;85.93;102225.91;4931566;29;20051;-75
2022/10/06 01:32:05;;;;;;;8.88;1.83;;;;;;;11.70;85.44;102222.38;4916796;29;20141;-75
2022/10/06 01:34:30;;;;;;;13.75;1.45;;;;;;;11.68;85.74;102218.84;4932136;29;20077;-75
2022/10/06 01:36:57;;;;;;;8.32;1.77;;;;;;;11.64;85.23;102218.13;4928937;29;20024;-74
2022/10/06 01:39:23;;;;;;;7.68;1.60;;;;;;;11.63;85.56;102237.31;4930496;29;20039;-75
2022/10/06 01:41:48;;;;;;;10.10;1.67;;;;;;;11.60;85.35;102243.81;4927147;29;20415;-75
2022/10/06 01:44:14;;;;;;;5.88;1.80;;;;;;;11.58;85.37;102242.13;4921262;29;20042;-74
2022/10/06 01:46:39;;;;;;;5.43;1.38;;;;;;;11.58;85.51;102243.03;4911345;29;20040;-75
2022/10/06 01:49:04;;;;;;;12.50;2.20;;;;;;;11.51;85.26;102233.41;4911158;29;20119;-74
2022/10/06 01:51:30;;;;;;;12.73;1.77;;;;;;;11.54;85.38;102246.00;4914800;29;20055;-74
2022/10/06 01:53:56;;;;;;;10.95;2.30;;;;;;;11.50;85.93;102239.81;4910742;29;20040;-75
2022/10/06 01:56:22;;;;;;;5.80;1.63;;;;;;;11.52;85.68;102251.53;4929802;29;20330;-73
2022/10/06 01:58:48;;;;;;;9.02;2.00;;;;;;;11.53;85.53;102256.00;4915135;29;20174;-74
2022/10/06 02:01:14;;;;;;;9.85;1.58;;;;;;;11.53;85.60;102264.19;4904961;29;20122;-74
2022/10/06 02:03:39;;;;;;;6.97;1.70;;;;;;;11.52;85.69;102253.34;4922741;29;20059;-74
2022/10/06 02:06:06;;;;;;;7.85;1.90;;;;;;;11.49;85.50;102251.69;4911287;29;20048;-74
2022/10/06 02:08:32;;;;;;;12.43;2.10;;;;;;;11.46;85.70;102251.84;4921702;29;20038;-75
2022/10/06 02:11:05;;;;;;;13.65;2.85;;;;;;;11.46;85.44;102252.72;4930068;29;20174;-75
2022/10/06 02:13:30;;;;;;;11.27;2.03;;;;;;;11.44;85.25;102261.97;4945428;29;20518;-74
2022/10/06 02:15:57;;;;;;;16.00;1.98;;;;;;;11.41;85.32;102264.84;4929577;29;20483;-74
2022/10/06 02:18:23;;;;;;;6.75;1.83;;;;;;;11.32;85.31;102262.59;4921620;29;20083;-74
2022/10/06 02:20:48;;;;;;;9.32;1.70;;;;;;;11.34;85.50;102275.19;4926077;29;20126;-74
2022/10/06 02:23:14;;;;;;;5.03;2.13;;;;;;;11.31;85.30;102272.63;4920605;29;20051;-74
2022/10/06 02:25:39;;;;;;;10.25;2.22;;;;;;;11.24;85.35;102280.25;4915932;29;20506;-74
2022/10/06 02:28:05;;;;;;;8.63;2.38;;;;;;;11.20;85.43;102288.66;4929935;29;20555;-74
2022/10/06 02:30:31;;;;;;;9.82;2.58;;;;;;;11.19;85.67;102297.75;4929155;29;20032;-75
2022/10/06 02:32:57;;;;;;;7.75;2.10;;;;;;;11.14;85.82;102302.56;4930851;29;20115;-74
2022/10/06 02:35:22;;;;;;;10.75;1.52;;;;;;;11.12;85.86;102309.97;4930215;29;20078;-73
2022/10/06 02:37:48;;;;;;;7.25;2.63;;;;;;;11.08;85.78;102303.78;4929433;29;20036;-74
2022/10/06 02:40:16;;;;;;;9.70;1.83;;;;;;;11.04;85.77;102307.59;4930213;29;20439;-75
2022/10/06 02:42:44;;;;;;;12.82;2.03;;;;;;;11.01;86.07;102315.09;4923900;29;20036;-75
2022/10/06 02:45:11;;;;;;;8.13;2.00;;;;;;;10.98;86.23;102319.72;4926461;29;20036;-74
2022/10/06 02:47:37;;;;;;;13.13;2.03;;;;;;;10.98;86.00;102327.88;4927825;29;20446;-74
2022/10/06 02:50:05;;;;;;;7.03;1.92;;;;;;;10.96;85.96;102332.53;4926552;29;20033;-74
2022/10/06 02:52:37;;;;;;;8.73;2.15;;;;;;;10.94;86.12;102339.00;4925871;29;20483;-74
2022/10/06 02:55:05;;;;;;;7.95;2.28;;;;;;;10.89;86.89;102333.78;4911183;29;20053;-74
2022/10/06 02:57:30;;;;;;;10.23;1.92;;;;;;;10.87;86.63;102333.00;4912101;29;20036;-75
2022/10/06 02:59:57;;;;;;;9.55;2.03;;;;;;;10.83;86.79;102342.25;4910726;29;20092;-75
2022/10/06 03:02:23;;;;;;;6.80;1.80;;;;;;;10.82;86.72;102343.22;4924627;29;20044;-74
2022/10/06 03:04:48;;;;;;;12.88;2.05;;;;;;;10.80;87.21;102349.69;4911178;29;20067;-74
2022/10/06 03:07:15;;;;;;;10.95;2.28;;;;;;;10.77;87.48;102358.91;4915969;29;20032;-75
2022/10/06 03:09:40;;;;;;;15.02;2.33;;;;;;;10.76;87.51;102362.56;4931355;29;20444;-74
2022/10/06 03:12:07;;;;;;;6.63;1.80;;;;;;;10.71;87.90;102362.78;4929755;29;20031;-74
2022/10/06 03:14:37;;;;;;;9.30;2.17;;;;;;;10.68;88.07;102362.97;4915382;29;20064;-74
2022/10/06 03:17:03;;;;;;;9.93;2.40;;;;;;;10.67;88.11;102371.19;4913362;29;20048;-75
2022/10/06 03:19:29;;;;;;;12.30;2.05;;;;;;;10.64;87.86;102369.50;4929880;29;20036;-74
2022/10/06 03:21:55;;;;;;;9.38;2.95;;;;;;;10.61;88.24;102375.09;4915286;29;20488;-74
2022/10/06 03:24:25;;;;;;;7.07;1.88;;;;;;;10.59;87.97;102371.56;4933001;29;20554;-74
2022/10/06 03:26:54;;;;;;;6.35;1.60;;;;;;;10.57;88.56;102376.19;4929347;29;20091;-74
2022/10/06 03:29:20;;;;;;;10.90;1.95;;;;;;;10.58;88.36;102379.78;4913915;29;20417;-74
2022/10/06 03:31:50;;;;;;;10.77;2.20;;;;;;;10.53;88.63;102384.56;4924693;29;20042;-73
2022/10/06 03:34:16;;;;;;;8.05;1.75;;;;;;;10.53;88.51;102392.72;4932176;29;20059;-74
2022/10/06 03:36:43;;;;;;;7.72;2.03;;;;;;;10.51;88.41;102397.38;4930518;29;20024;-74
2022/10/06 03:39:08;;;;;;;9.27;1.67;;;;;;;10.48;88.82;102401.09;4932072;29;20439;-74
2022/10/06 03:41:36;;;;;;;11.70;1.95;;;;;;;10.46;88.88;102405.75;4932044;29;20138;-74
2022/10/06 03:44:03;;;;;;;11.25;2.15;;;;;;;10.43;89.03;102406.78;4932479;29;20034;-74
2022/10/06 03:46:32;;;;;;;15.57;2.20;;;;;;;10.39;89.21;102413.31;4931927;29;20063;-75
2022/10/06 03:48:59;;;;;;;13.73;2.15;;;;;;;10.37;88.73;102419.78;4915117;29;20040;-75
2022/10/06 03:51:30;;;;;;;10.02;1.63;;;;;;;10.34;89.41;102411.75;4929518;29;20463;-74
2022/10/06 03:53:57;;;;;;;13.68;2.78;;;;;;;10.30;88.86;102416.44;4931195;29;20031;-74
2022/10/06 03:56:25;;;;;;;7.22;1.90;;;;;;;10.28;89.60;102428.38;4932072;29;20172;-74
2022/10/06 03:58:56;;;;;;;10.07;1.45;;;;;;;10.23;89.26;102424.00;4932614;29;20044;-74
2022/10/06 04:01:26;;;;;;;4.22;1.90;;;;;;;10.21;89.73;102430.44;4919983;29;20036;-73
2022/10/06 04:03:54;;;;;;;13.80;2.55;;;;;;;10.18;89.71;102444.19;4916136;29;20039;-73
2022/10/06 04:06:19;;;;;;;13.60;2.25;;;;;;;10.15;89.94;102444.31;4913703;29;20023;-74
2022/10/06 04:08:47;;;;;;;7.25;1.70;;;;;;;10.11;89.43;102449.00;4914757;29;20278;-74
2022/10/06 04:11:24;;;;;;;13.63;2.13;;;;;;;10.08;89.26;102451.00;4914553;29;20072;-75
2022/10/06 04:13:56;;;;;;;11.38;2.50;;;;;;;10.07;89.87;102463.72;4913399;29;20035;-75
2022/10/06 04:16:24;;;;;;;;;;;;;;;10.08;88.53;102461.88;4913104;29;20036;-74
2022/10/06 04:18:52;;;;;;;9.00;2.30;;;;;;;10.03;89.63;102464.81;4912056;29;20002;-75
2022/10/06 04:21:19;;;;;;;9.27;2.83;;;;;;;10.02;89.73;102462.13;4915275;29;20040;-74
2022/10/06 04:23:44;;;;;;;9.00;2.25;;;;;;;10.01;89.54;102473.97;4931493;29;20487;-75
2022/10/06 04:26:13;;;;;;;12.48;2.40;;;;;;;9.97;89.39;102474.09;4926688;29;20179;-74
2022/10/06 04:28:42;;;;;;;11.52;1.90;;;;;;;9.94;89.30;102474.25;4928326;29;20076;-74
2022/10/06 04:31:23;;;;;;;10.88;2.25;;;;;;;9.90;89.60;102482.59;4912811;29;20063;-73
2022/10/06 04:33:50;;;;;;;12.10;1.92;;;;;;;9.85;89.60;102488.25;4924958;29;20530;-74
2022/10/06 04:36:22;;;;;;;8.57;2.40;;;;;;;9.84;89.97;102482.84;4928588;29;20031;-74
2022/10/06 04:38:55;;;;;;;10.60;2.33;;;;;;;9.82;89.78;102487.47;4922981;29;20079;-75
2022/10/06 04:41:22;;;;;;;11.88;2.67;;;;;;;9.78;89.75;102489.44;4932237;29;20046;-74
2022/10/06 04:43:49;;;;;;;13.25;2.28;;;;;;;9.74;90.09;102490.50;4929756;29;20050;-74
2022/10/06 04:46:17;;;;;;;12.18;2.30;;;;;;;9.72;90.01;102489.69;4943854;29;20030;-74
2022/10/06 04:48:42;;;;;;;9.90;2.67;;;;;;;9.70;89.97;102500.66;4927619;29;20040;-73
2022/10/06 04:51:13;;;;;;;11.18;2.22;;;;;;;9.68;90.14;102497.09;4924697;29;20495;-75
2022/10/06 04:53:40;;;;;;;13.05;2.22;;;;;;;9.63;89.85;102501.84;4912323;29;20036;-74
2022/10/06 04:56:09;;;;;;;14.98;2.65;;;;;;;9.61;90.12;102509.19;4912026;29;20139;-74
2022/10/06 04:58:44;;;;;;;16.40;2.35;;;;;;;9.59;90.51;102512.91;4930585;29;20048;-74
2022/10/06 05:01:17;;;;;;;8.90;2.55;;;;;;;9.56;89.85;102516.66;4929954;29;20471;-74
2022/10/06 05:03:46;;;;;;;8.32;2.67;;;;;;;9.52;90.29;102517.72;4930313;29;20457;-74
2022/10/06 05:06:17;;;;;;;7.70;2.60;;;;;;;9.50;90.23;102524.16;4930848;29;20027;-74
2022/10/06 05:08:50;;;;;;;10.20;2.23;;;;;;;9.47;90.16;102536.03;4930371;29;20067;-74
2022/10/06 05:11:15;;;;;;;10.23;2.33;;;;;;;9.44;90.80;102533.44;4931879;29;20053;-74
2022/10/06 05:13:42;;;;;;;11.32;2.45;;;;;;;9.41;90.45;102537.16;4931861;29;20403;-74
2022/10/06 05:16:11;;;;;;;12.63;3.42;;;;;;;9.38;90.73;102541.84;4927538;29;20210;-74
2022/10/06 05:18:37;;;;;;;13.80;2.65;;;;;;;9.36;90.23;102543.72;4929950;29;20523;-74
2022/10/06 05:21:13;;;;;;;16.52;3.20;;;;;;;9.33;90.94;102552.91;4930632;29;20027;-74
2022/10/06 05:23:40;;;;;;;12.95;2.33;;;;;;;9.29;90.79;102553.97;4901952;29;20047;-74
2022/10/06 05:26:06;;;;;;;10.95;3.13;;;;;;;9.28;90.84;102562.16;4901676;29;20491;-74
2022/10/06 05:28:33;;;;;;;20.52;2.70;;;;;;;9.25;91.23;102562.28;4924219;29;20047;-74
2022/10/06 05:31:07;;;;;;;13.13;2.22;;;;;;;9.24;90.83;102564.13;4904584;29;20492;-74
2022/10/06 05:33:34;;;;;;;13.57;2.53;;;;;;;9.22;91.16;102565.13;4917497;29;20488;-73
2022/10/06 05:36:20;;;;;;;16.27;2.40;;;;;;;9.19;90.84;102575.16;4927636;29;20115;-74
2022/10/06 05:38:48;;;;;;;14.15;2.88;;;;;;;9.17;90.67;102582.47;4926770;29;20135;-73
2022/10/06 05:41:20;;;;;;;17.23;2.63;;;;;;;9.14;91.20;102579.91;4911785;29;20035;-74
2022/10/06 05:43:47;;;;;;;9.98;2.13;;;;;;;9.14;91.06;102593.47;4925131;29;20400;-74
2022/10/06 05:46:19;;;;;;;13.23;2.35;;;;;;;9.09;91.05;102594.56;4917008;29;20538;-74
2022/10/06 05:48:47;;;;;;;10.40;1.98;;;;;;;9.08;91.04;102599.09;4926941;29;20393;-74
2022/10/06 05:51:16;;;;;;;13.98;3.08;;;;;;;9.11;90.78;102603.56;4911708;29;20119;-74
2022/10/06 05:53:42;;;;;;;18.08;3.17;;;;;;;9.11;90.71;102600.84;4925859;29;20024;-74
2022/10/06 05:56:09;;;;;;;20.90;2.88;;;;;;;9.09;90.99;102606.34;4930220;29;20450;-74
2022/10/06 05:58:37;;;;;;;12.90;2.95;;;;;;;9.08;91.27;102603.66;4929986;29;20043;-74
2022/10/06 06:01:11;;;;;;;16.10;3.38;;;;;;;9.09;90.99;102610.84;4931073;29;20075;-74
2022/10/06 06:03:39;;;;;;;14.07;3.00;;;;;;;9.08;90.68;102614.53;4929799;29;20376;-74
2022/10/06 06:06:26;;;;;;;9.52;2.38;;;;;;;9.07;91.07;102615.47;4925813;29;20055;-74
2022/10/06 06:09:02;;;;;;;12.52;2.85;;;;;;;9.05;91.24;102629.13;4927073;29;20036;-73
2022/10/06 06:11:30;;;;;;;11.20;2.80;;;;;;;9.04;90.81;102629.16;4927015;29;20040;-72
2022/10/06 06:13:57;;;;;;;18.20;2.90;;;;;;;9.05;90.80;102631.84;4942690;29;20582;-74
2022/10/06 06:16:24;;;;;;;13.77;3.47;;;;;;;9.04;91.03;102637.28;4926978;29;20036;-74
2022/10/06 06:18:49;;;;;;;14.63;2.83;;;;;;;9.05;90.99;102631.84;4926977;29;20036;-74
2022/10/06 06:21:16;;;;;;;16.02;2.58;;;;;;;9.06;90.56;102635.44;4927200;29;20051;-74
2022/10/06 06:23:45;;;;;;;18.08;2.33;;;;;;;9.07;90.78;102637.19;4910420;29;20076;-74
2022/10/06 06:26:16;;;;;;;14.93;2.60;;;;;;;9.07;90.61;102643.50;4932334;29;20047;-74
2022/10/06 06:28:46;;;;;;;11.63;3.13;;;;;;;9.09;90.79;102640.72;4930177;29;20055;-74
2022/10/06 06:31:16;;;;;;;16.50;2.95;;;;;;;9.08;90.92;102645.25;4928931;29;20513;-74
2022/10/06 06:33:42;;;;;;;12.98;2.22;;;;;;;9.09;90.78;102638.91;4929635;29;20028;-74
2022/10/06 06:36:12;;;;;;;11.65;2.63;;;;;;;9.15;90.86;102654.09;4929641;29;20024;-74
2022/10/06 06:38:38;;;;;;;48.53;4.43;;;;;;;9.12;90.62;102652.34;4916504;29;20420;-74
2022/10/06 06:41:04;;;;;;;11.02;3.05;;;;;;;9.15;90.44;102659.53;4927425;29;20043;-73
2022/10/06 06:43:29;;;;;;;16.55;2.75;;;;;;;9.16;90.79;102669.44;4914809;29;20042;-74
2022/10/06 06:46:13;;;;;;;15.18;2.55;;;;;;;9.22;90.46;102671.91;4915394;29;20032;-74
2022/10/06 06:48:53;;;;;;;11.85;2.55;;;;;;;9.25;89.73;102669.09;4929698;29;20040;-74
2022/10/06 06:51:22;;;;;;;14.02;2.47;;;;;;;9.29;90.04;102684.31;4916370;29;20333;-74
2022/10/06 06:53:49;;;;;;;10.32;2.58;;;;;;;9.31;90.27;102676.13;4930681;29;20032;-73
2022/10/06 06:56:16;;;;;;;14.07;3.58;;;;;;;9.31;90.05;102678.81;4939709;29;20044;-74
2022/10/06 06:58:49;;;;;;;32.45;3.72;;;;;;;9.31;90.28;102679.72;4917611;29;20676;-74
2022/10/06 07:01:19;;;;;;;9.82;2.65;;;;;;;9.33;90.48;102687.81;4937341;29;20041;-74
2022/10/06 07:03:50;;;;;;;16.13;2.88;;;;;;;9.34;90.03;102693.19;4929641;29;20048;-74
2022/10/06 07:06:17;;;;;;;10.07;2.65;;;;;;;9.38;90.14;102693.97;4914455;29;20036;-74
2022/10/06 07:08:45;;;;;;;13.75;2.60;;;;;;;9.41;89.67;102701.97;4914640;29;20044;-74
2022/10/06 07:11:11;;;;;;;12.77;2.90;;;;;;;9.46;89.84;102705.41;4914168;29;20555;-74
2022/10/06 07:13:38;;;;;;;13.98;2.78;;;;;;;9.54;89.54;102714.16;4915445;29;20028;-74
2022/10/06 07:27:01;;;;;;;17.30;4.00;;;;;;;9.71;89.16;102722.56;4945164;29;20534;-74
2022/10/06 07:29:26;;;;;;;13.88;3.00;;;;;;;9.75;88.82;102731.47;4917127;29;20036;-74
2022/10/06 07:31:53;;;;;;;22.50;3.28;;;;;;;9.75;89.13;102736.03;4913111;29;20126;-73
2022/10/06 07:34:18;;;;;;;16.23;3.05;;;;;;;9.73;88.73;102738.78;4914119;29;20032;-74
2022/10/06 07:36:47;;;;;;;13.85;3.78;;;;;;;9.76;89.04;102755.00;4929808;29;20040;-74
2022/10/06 07:39:13;;;;;;;17.30;4.45;;;;;;;9.79;88.88;102745.81;4915304;29;20044;-75
2022/10/06 07:41:38;;;;;;;17.67;3.00;;;;;;;9.83;89.22;102759.22;4915161;29;20030;-74
2022/10/06 07:44:04;;;;;;;13.95;3.20;;;;;;;9.85;89.25;102753.75;4915363;29;20476;-74
2022/10/06 07:46:32;;;;;;;16.42;2.47;;;;;;;9.88;88.85;102762.66;4929171;29;20024;-74
2022/10/06 07:49:10;;;;;;;11.25;3.20;;;;;;;9.92;88.65;102764.31;4915290;29;20044;-74
2022/10/06 07:51:36;;;;;;;8.02;2.80;;;;;;;9.98;88.93;102768.66;4929308;29;20040;-74
2022/10/06 07:54:01;;;;;;;17.88;3.22;;;;;;;10.02;88.75;102772.09;4932082;29;20522;-74
2022/10/06 07:56:54;;;;;;;19.20;3.15;;;;;;;10.06;89.00;102771.94;4931054;29;20082;-74
2022/10/06 07:59:19;;;;;;;13.80;3.35;;;;;;;10.13;88.64;102780.75;4917263;29;20052;-75
2022/10/06 08:01:44;;;;;;;14.88;2.85;;;;;;;10.19;88.25;102781.38;4925669;29;20511;-75
2022/10/06 08:04:13;;;;;;;16.38;4.35;;;;;;;10.23;88.71;102779.44;4932810;29;20050;-74
2022/10/06 08:06:39;;;;;;;12.90;3.15;;;;;;;10.28;88.47;102790.16;4932279;29;20027;-74
2022/10/06 08:09:05;;;;;;;17.23;3.72;;;;;;;10.31;88.36;102788.22;4914850;29;20048;-75
2022/10/06 08:11:31;;;;;;;16.52;3.42;;;;;;;10.36;88.16;102782.59;4923905;29;20475;-73
2022/10/06 08:13:57;;;;;;;11.35;2.60;;;;;;;10.43;88.43;102790.41;4931608;29;20110;-75
2022/10/06 08:16:28;;;;;;;14.68;3.78;;;;;;;10.50;88.37;102801.06;4931423;29;20050;-74
2022/10/06 08:18:56;;;;;;;13.88;4.03;;;;;;;10.55;88.85;102794.50;4932603;29;20036;-74
2022/10/06 08:21:25;;;;;;;23.17;2.75;;;;;;;10.66;88.67;102804.94;4933761;29;20055;-75
2022/10/06 08:23:52;;;;;;;8.77;2.30;;;;;;;10.71;88.26;102811.94;4931773;29;20040;-74
2022/10/06 08:26:20;;;;;;;24.42;3.15;;;;;;;10.80;88.01;102820.69;4932160;29;20043;-74
2022/10/06 08:28:48;;;;;;;22.00;3.53;;;;;;;10.87;87.05;102809.50;4931791;29;20047;-74
2022/10/06 08:31:16;;;;;;;9.48;2.45;;;;;;;10.96;87.43;102820.00;4927640;29;20480;-75
2022/10/06 08:33:43;;;;;;;12.90;3.05;;;;;;;11.02;86.88;102824.28;4926859;29;20036;-74
2022/10/06 08:36:13;;;;;;;16.08;3.00;;;;;;;11.06;87.10;102825.94;4933216;29;20377;-74
2022/10/06 08:38:39;;;;;;;21.42;2.83;;;;;;;11.15;86.17;102830.09;4932505;29;20035;-75
2022/10/06 08:41:26;;;;;;;14.45;3.15;;;;;;;11.24;85.55;102838.75;4932886;29;20118;-74
2022/10/06 08:44:14;;;;;;;16.83;3.17;;;;;;;11.32;86.27;102841.13;4932743;29;20428;-73
2022/10/06 08:46:48;;;;;;;17.15;2.70;;;;;;;11.39;86.02;102839.03;4924217;29;20052;-75
2022/10/06 08:49:19;;;;;;;16.10;4.55;;;;;;;11.46;86.11;102844.13;4932213;29;20106;-75
2022/10/06 08:52:08;;;;;;;17.92;2.90;;;;;;;11.52;85.68;102832.09;4932783;29;20127;-75
2022/10/06 08:54:45;;;;;;;19.98;3.22;;;;;;;11.59;84.84;102847.22;4913835;29;20139;-75
2022/10/06 08:57:25;;;;;;;18.48;2.47;;;;;;;11.62;84.97;102844.34;4930119;29;20102;-75
2022/10/06 08:59:53;;;;;;;11.57;2.35;;;;;;;11.69;85.19;102845.84;4931662;29;20039;-74
2022/10/06 09:02:27;;;;;;;14.38;2.53;;;;;;;11.76;84.09;102854.66;4919431;29;20458;-75
2022/10/06 09:04:56;;;;;;;18.25;2.63;;;;;;;11.80;83.62;102850.84;4932156;29;20543;-74
2022/10/06 09:07:41;;;;;;;15.25;2.92;;;;;;;11.87;83.45;102856.91;4930912;29;20019;-75
2022/10/06 09:10:50;;;;;;;15.27;3.35;;;;;;;11.91;83.13;102875.78;4932487;29;20448;-75
2022/10/06 09:13:27;;;;;;;18.33;2.60;;;;;;;11.99;82.11;102873.59;4878913;29;20040;-73
2022/10/06 09:15:58;;;;;;;13.93;2.22;;;;;;;12.08;81.40;102876.88;4912342;29;20047;-74
2022/10/06 09:18:36;;;;;;;14.07;2.67;;;;;;;12.12;82.67;102873.03;4913627;29;20035;-74
2022/10/06 09:21:05;;;;;;;11.10;2.88;;;;;;;12.20;83.13;102885.34;4913374;29;20408;-74
2022/10/06 09:23:48;;;;;;;12.85;2.88;;;;;;;12.26;83.16;102876.00;4925290;29;20146;-75
2022/10/06 09:26:18;;;;;;;14.73;2.92;;;;;;;12.34;81.72;102872.91;4927293;29;20056;-75
2022/10/06 09:28:46;;;;;;;14.48;3.13;;;;;;;12.43;82.92;102884.28;4911888;29;20099;-75
2022/10/06 09:31:23;;;;;;;29.13;3.00;;;;;;;12.51;82.49;102886.66;4929658;29;20054;-74
2022/10/06 09:33:52;;;;;;;11.85;2.42;;;;;;;12.60;82.19;102883.47;4916683;29;20119;-75
2022/10/06 09:36:17;;;;;;;14.15;2.42;;;;;;;12.68;81.29;102891.28;4913524;29;20039;-75
2022/10/06 09:38:54;;;;;;;13.65;2.50;;;;;;;12.79;80.48;102888.94;4929720;29;20043;-74
2022/10/06 09:41:44;;;;;;;9.55;2.22;;;;;;;12.92;79.77;102889.22;4932425;29;20098;-75
2022/10/06 09:44:32;;;;;;;11.57;2.17;;;;;;;13.10;80.50;102901.06;4931219;29;20369;-75
2022/10/06 09:46:58;;;;;;;17.08;3.10;;;;;;;13.21;80.39;102890.47;4931033;29;20046;-75
2022/10/06 09:49:30;;;;;;;15.93;2.78;;;;;;;13.36;79.98;102900.66;4931481;29;20479;-74
2022/10/06 09:51:59;;;;;;;8.10;2.35;;;;;;;13.47;78.16;102898.25;4931971;29;20043;-74
2022/10/06 09:54:27;;;;;;;11.30;2.22;;;;;;;13.59;78.36;102896.72;4911498;29;20040;-75
2022/10/06 09:56:54;;;;;;;12.73;2.05;;;;;;;13.74;76.76;102905.97;4926312;29;20484;-74
2022/10/06 09:59:33;;;;;;;12.27;2.28;;;;;;;13.83;76.65;102897.28;4932166;29;20043;-75
2022/10/06 10:01:59;;;;;;;17.60;2.60;;;;;;;13.85;75.34;102894.47;4930971;29;20078;-75
2022/10/06 10:04:36;;;;;;;9.55;1.88;;;;;;;13.96;76.32;102897.53;4914176;29;20032;-74
2022/10/06 10:07:23;;;;;;;12.55;2.05;;;;;;;14.09;76.61;102890.41;4927615;29;20036;-75
2022/10/06 10:09:48;;;;;;;9.90;2.83;;;;;;;14.16;75.70;102889.09;4913113;29;20040;-74
2022/10/06 10:12:31;;;;;;;10.35;2.45;;;;;;;14.31;76.01;102895.56;4911234;29;20043;-74
2022/10/06 10:15:18;;;;;;;10.95;2.00;;;;;;;14.46;74.40;102897.47;4911127;29;20561;-75
2022/10/06 10:17:49;;;;;;;12.18;1.80;;;;;;;14.53;71.31;102900.78;4920899;29;20043;-75
2022/10/06 10:20:24;;;;;;;10.63;2.10;;;;;;;14.57;71.97;102904.25;4935387;29;20035;-75
2022/10/06 10:22:55;;;;;;;14.48;1.90;;;;;;;14.62;73.02;102908.47;4927371;29;20479;-75
2022/10/06 10:25:45;;;;;;;11.57;2.30;;;;;;;14.75;73.75;102906.81;4934393;29;20126;-75
2022/10/06 10:28:14;;;;;;;16.67;2.22;;;;;;;14.88;72.25;102907.00;4934757;29;20039;-75
2022/10/06 10:31:09;;;;;;;10.15;1.90;;;;;;;15.05;71.27;102901.41;4934952;29;20044;-75
2022/10/06 10:34:04;;;;;;;8.50;2.38;;;;;;;15.29;70.69;102896.34;4923901;29;20148;-75
2022/10/06 10:36:43;;;;;;;9.52;2.13;;;;;;;15.50;67.29;102901.53;4930861;29;20032;-74
2022/10/06 10:39:16;;;;;;;4.97;1.70;;;;;;;15.52;66.19;102905.03;4932779;29;20043;-74
2022/10/06 10:41:51;;;;;;;6.72;1.67;;;;;;;15.36;65.42;102907.84;4933348;29;20047;-74
2022/10/06 10:44:40;;;;;;;11.73;1.77;;;;;;;15.30;67.52;102902.72;4935177;29;20278;-75
2022/10/06 10:47:36;;;;;;;8.80;2.60;;;;;;;15.41;66.41;102902.06;4945088;29;20040;-74
2022/10/06 10:50:25;;;;;;;12.82;1.80;;;;;;;15.63;66.96;102904.41;4914970;29;20056;-75
2022/10/06 10:52:56;;;;;;;10.52;1.73;;;;;;;15.81;64.77;102901.44;4916775;29;20036;-75
2022/10/06 10:55:29;;;;;;;8.98;2.63;;;;;;;16.06;65.90;102909.03;4918626;29;20501;-73
2022/10/06 10:58:03;;;;;;;12.98;2.53;;;;;;;16.24;65.79;102906.13;4933217;29;20056;-74
2022/10/06 11:00:34;;;;;;;8.88;2.10;;;;;;;16.44;63.21;102902.09;4909681;29;20476;-74
2022/10/06 11:03:00;;;;;;;15.05;3.25;;;;;;;16.59;61.13;102901.09;4922230;29;20487;-75
2022/10/06 11:06:03;;;;;;;9.93;2.78;;;;;;;16.76;63.88;102916.53;4934656;29;20503;-74
2022/10/06 11:08:38;;;;;;;;;;;;;;;16.86;64.63;102908.53;4921592;29;20074;-75
2022/10/06 11:11:14;;;;;;;8.55;2.28;;;;;;;16.97;61.94;102917.88;4917602;29;19926;-75
2022/10/06 11:13:46;;;;;;;11.57;2.08;;;;;;;17.18;62.73;102911.91;4915457;29;20506;-75
2022/10/06 11:16:39;;;;;;;10.52;2.83;;;;;;;17.33;60.05;102917.22;4923608;29;20590;-75
2022/10/06 11:19:34;;;;;;;4.53;1.98;;;;;;;17.41;60.47;102921.34;4915958;29;20040;-75
2022/10/06 11:22:13;;;;;;;7.45;2.40;;;;;;;17.36;59.76;102918.91;4915738;29;20050;-74
2022/10/06 11:24:46;;;;;;;10.50;2.75;;;;;;;17.14;58.47;102924.97;4914104;29;20044;-75
2022/10/06 11:27:44;;;;;;;10.88;2.95;;;;;;;17.11;60.38;102922.41;4931730;29;20608;-75
2022/10/06 11:30:19;;;;;;;9.50;2.72;;;;;;;17.21;60.61;102912.59;4932461;29;20083;-75
2022/10/06 11:33:02;;;;;;;7.38;2.55;;;;;;;17.47;59.42;102904.41;4932916;29;20040;-75
2022/10/06 11:35:36;;;;;;;11.38;2.67;;;;;;;17.74;60.11;102904.41;4934181;29;20456;-75
2022/10/06 11:38:04;;;;;;;7.47;2.22;;;;;;;17.91;58.59;102898.59;4925930;29;20047;-75
2022/10/06 11:40:30;;;;;;;10.02;2.03;;;;;;;18.15;58.14;102904.22;4913862;29;20095;-75
2022/10/06 11:42:58;;;;;;;6.03;1.88;;;;;;;18.23;57.35;102906.41;4913534;29;20515;-75
2022/10/06 11:45:59;;;;;;;8.93;2.33;;;;;;;18.32;59.53;102909.38;4918817;29;20043;-75
2022/10/06 11:48:29;;;;;;;9.32;2.53;;;;;;;18.39;58.71;102911.72;4909830;29;20047;-75